M I D A S
Marine Information and Data Acquisition System
Tripno 417 of the Zeeleeuw from 2003-01-21 07:38:28 to 2003-01-21 20:26:47
Back to CruiseResearch ActivitiesStationsMapUnderway DataData graphs

EquipmentUnitsComment
TimeDGPSUTC
LatitudeDGPSDM.mWGS84
LongitudeDGPSDM.mWGS84
HeadingGyrodeg 
SOGDGPSknotsSpeed over ground
COGDGPSdegCourse over ground
DepthEcho soundermeters200 kHz
Missing or incorrect values are displayed as -999
Navigation data collected by the RV Zeeleeuw from 2003-01-21 07:38:28 to 2003-01-21 20:26:47
                                                                                    Next 1000 lines
Time Latitude Longitude Heading SOG COG Depth
2003-01-21 07:38:38 51°13.688 2°55.787 110.2 4.3 293 10.2
2003-01-21 07:38:42 51°13.69 2°55.781 108 3.8 292.5 10.5
2003-01-21 07:38:48 51°13.692 2°55.773 105.3 3.3 292.6 10.6
2003-01-21 07:38:53 51°13.693 2°55.768 102.7 2.8 292.5 10.7
2003-01-21 07:38:58 51°13.694 2°55.763 99.5 2.3 293 9.3
2003-01-21 07:39:03 51°13.695 2°55.76 96.3 1.9 294.1 10.2
2003-01-21 07:39:08 51°13.696 2°55.757 92.5 1.5 297.2 10.7
2003-01-21 07:39:13 51°13.697 2°55.755 88.7 1.2 302.6 10.9
2003-01-21 07:39:18 51°13.698 2°55.753 84.7 1 312.8 11
2003-01-21 07:39:23 51°13.699 2°55.752 80.7 0.9 327.4 10.6
2003-01-21 07:39:28 51°13.7 2°55.751 75.5 0.9 343.7 -999
2003-01-21 07:39:34 51°13.702 2°55.751 69.3 0.9 357.1 -999
2003-01-21 07:39:39 51°13.703 2°55.752 64 1.1 7.4 4.7
2003-01-21 07:39:42 51°13.704 2°55.752 59.3 1.2 11.9 11
2003-01-21 07:39:48 51°13.707 2°55.753 54.7 1.4 12.6 11
2003-01-21 07:39:52 51°13.708 2°55.754 49.3 1.6 13 10.9
2003-01-21 07:39:58 51°13.711 2°55.755 42.8 1.9 10.7 8.6
2003-01-21 07:40:02 51°13.714 2°55.756 36.3 2.3 9.8 10.8
2003-01-21 07:40:08 51°13.718 2°55.756 28.2 2.7 5.6 9.9
2003-01-21 07:40:14 51°13.724 2°55.756 19.5 3.2 1.2 10
2003-01-21 07:40:18 51°13.728 2°55.755 9.2 3.6 354.9 7.2
2003-01-21 07:40:22 51°13.732 2°55.754 0.7 4 348.9 7.8
2003-01-21 07:40:28 51°13.739 2°55.75 351.8 4.3 341.5 7.4
2003-01-21 07:40:32 51°13.744 2°55.746 342.3 4.5 334.8 8.7
2003-01-21 07:40:38 51°13.75 2°55.74 334.3 4.6 329.1 8.1
2003-01-21 07:40:43 51°13.755 2°55.733 328.7 4.7 322.9 8
2003-01-21 07:40:48 51°13.76 2°55.726 324.3 4.8 319.2 8
2003-01-21 07:40:53 51°13.765 2°55.719 321.5 4.9 316.7 7.7
2003-01-21 07:40:58 51°13.77 2°55.711 319.5 4.9 315.1 8.4
2003-01-21 07:41:03 51°13.775 2°55.703 318 5 314.2 7.1
2003-01-21 07:41:08 51°13.78 2°55.695 317.3 5 313.2 -999
2003-01-21 07:41:12 51°13.783 2°55.688 317.7 5.1 313.3 -999
2003-01-21 07:41:18 51°13.789 2°55.679 318.8 5.1 314.2 7.6
2003-01-21 07:41:22 51°13.794 2°55.673 320.7 5.2 316.1 -999
2003-01-21 07:41:28 51°13.8 2°55.663 322.8 5.2 318.5 8.7
2003-01-21 07:41:33 51°13.806 2°55.656 325.2 5.2 320.9 8.6
2003-01-21 07:41:38 51°13.812 2°55.649 327.5 5.3 323.1 7.6
2003-01-21 07:41:44 51°13.819 2°55.641 329.8 5.3 325.5 8.9
2003-01-21 07:47:14 51°14.328 2°55.096 315.8 7.8 308 8
2003-01-21 07:47:20 51°14.337 2°55.08 316.2 7.8 308.7 8.2
2003-01-21 07:47:26 51°14.345 2°55.064 317 7.8 309.4 9.3
2003-01-21 07:47:30 51°14.351 2°55.054 317.5 7.8 310.3 7.7
2003-01-21 07:47:34 51°14.356 2°55.043 317.8 7.8 310.6 14
2003-01-21 07:47:40 51°14.365 2°55.027 318 7.9 310.8 13.4
2003-01-21 07:47:44 51°14.37 2°55.017 318.8 7.9 310.8 13.4
2003-01-21 07:47:50 51°14.379 2°55.001 320.2 7.9 311.5 13.7
2003-01-21 07:47:54 51°14.386 2°54.99 321.8 8.3 312.9 13.7
2003-01-21 07:48:00 51°14.396 2°54.974 324.3 8.7 315.1 7.7
2003-01-21 07:48:04 51°14.404 2°54.963 328 9.2 317.8 -999
2003-01-21 07:48:10 51°14.417 2°54.947 331.5 9.6 320.4 8.1
2003-01-21 07:48:14 51°14.426 2°54.937 335.5 10 324.8 7.3
2003-01-21 07:48:20 51°14.441 2°54.923 339.2 10.2 327.9 7.6
2003-01-21 07:48:25 51°14.454 2°54.912 343.5 10.5 332 7.9
2003-01-21 07:48:30 51°14.468 2°54.902 342.7 10.7 332.8 8.1
2003-01-21 07:48:36 51°14.483 2°54.887 340 10.9 330.4 7.8
2003-01-21 07:48:40 51°14.494 2°54.876 338.5 11 328.8 13.3
2003-01-21 07:48:44 51°14.504 2°54.865 338.3 11.1 327.4 12.8
2003-01-21 07:48:50 51°14.52 2°54.85 338.2 11.3 327.3 12.6
2003-01-21 07:48:54 51°14.53 2°54.839 338.5 11.4 327.2 12.4
2003-01-21 07:49:00 51°14.546 2°54.821 336.8 11.4 325.9 12.4
2003-01-21 07:49:05 51°14.558 2°54.804 332.7 11.5 321.5 7.8
2003-01-21 07:49:10 51°14.57 2°54.786 330.2 11.6 318.6 8
2003-01-21 07:49:14 51°14.58 2°54.772 329.3 11.8 317.4 7.8
2003-01-21 07:49:20 51°14.595 2°54.751 329.3 11.9 317.3 7.9
2003-01-21 07:49:25 51°14.607 2°54.733 330 12 318.4 7.4
2003-01-21 07:49:30 51°14.62 2°54.717 332.3 12.1 319.5 7.4
2003-01-21 07:49:36 51°14.636 2°54.698 335 12 322.7 7.9
2003-01-21 07:49:40 51°14.647 2°54.685 336 12 323.3 7.7
2003-01-21 07:49:45 51°14.66 2°54.669 334.8 12 322.7 -999
2003-01-21 07:49:50 51°14.673 2°54.652 333.5 12.1 321.4 7.5
2003-01-21 07:49:54 51°14.684 2°54.639 333 12.2 321 7.9
2003-01-21 07:50:00 51°14.7 2°54.618 333.5 12.2 321.3 7.8
2003-01-21 07:50:04 51°14.711 2°54.605 334.8 12.2 322.7 8
2003-01-21 07:50:10 51°14.727 2°54.587 336.7 12.2 324.4 7.4
2003-01-21 07:50:14 51°14.739 2°54.575 338.7 12.2 326 7.9
2003-01-21 07:50:20 51°14.755 2°54.557 338.2 12.2 326 7.9
2003-01-21 07:50:24 51°14.766 2°54.544 335.7 12.2 323.9 7.9
2003-01-21 07:50:30 51°14.782 2°54.524 333.8 12.2 322.2 7.8
2003-01-21 07:50:34 51°14.792 2°54.51 333 12.3 321.5 7.8
2003-01-21 07:50:40 51°14.808 2°54.49 333.7 12.3 322.1 7.7
2003-01-21 07:50:45 51°14.822 2°54.475 335.8 12.2 324.3 7.9
2003-01-21 07:50:50 51°14.837 2°54.461 338.8 12.2 327.3 7.5
2003-01-21 07:50:54 51°14.849 2°54.45 341.5 12.1 330 7.7
2003-01-21 07:51:00 51°14.866 2°54.435 342.8 12.1 331.4 7.6
2003-01-21 07:51:04 51°14.878 2°54.425 342.5 12 331.4 7.6
2003-01-21 07:51:10 51°14.895 2°54.408 340.3 12 329.6 7.2
2003-01-21 07:51:14 51°14.906 2°54.397 338.3 12 327.8 7.6
2003-01-21 07:51:20 51°14.922 2°54.378 336.8 12 326.4 7.4
2003-01-21 07:51:25 51°14.936 2°54.364 336.2 12 325.9 7.3
2003-01-21 07:51:30 51°14.95 2°54.349 337.2 11.9 326.7 7.1
2003-01-21 07:51:35 51°14.964 2°54.336 339.7 11.9 328.7 7.2
2003-01-21 07:51:40 51°14.979 2°54.324 342 11.8 330.8 7.2
2003-01-21 07:51:44 51°14.99 2°54.314 342.5 11.8 331.5 7.1
2003-01-21 07:51:50 51°15.007 2°54.299 342 11.8 331.1 7.1
2003-01-21 07:51:54 51°15.019 2°54.287 340 11.8 329.1 7
2003-01-21 07:52:00 51°15.035 2°54.27 338.3 11.9 327.7 7.1
2003-01-21 07:52:05 51°15.049 2°54.255 337.2 11.9 326.1 7.1
2003-01-21 07:52:10 51°15.063 2°54.24 336.7 12 326 7.2
2003-01-21 07:52:16 51°15.079 2°54.223 337 12 326.4 7.2
2003-01-21 07:52:20 51°15.091 2°54.212 338.7 12 327.2 7.2
2003-01-21 07:52:25 51°15.105 2°54.198 339.3 12 328.6 7.2
2003-01-21 07:52:30 51°15.119 2°54.184 339.7 12 329 7.3
2003-01-21 07:52:34 51°15.131 2°54.173 340.3 12.1 329.2 7.3
2003-01-21 07:52:40 51°15.148 2°54.156 340.3 12.1 329.2 7.4
2003-01-21 07:52:45 51°15.163 2°54.143 340.5 12.2 329.1 7.5
2003-01-21 07:52:50 51°15.177 2°54.129 340 12.2 328.8 7.6
2003-01-21 07:52:54 51°15.189 2°54.117 338.7 12.2 327.6 7.7
2003-01-21 07:53:00 51°15.206 2°54.099 337.3 12.2 326.7 7.6
2003-01-21 07:53:04 51°15.217 2°54.086 337 12.3 326 7.8
2003-01-21 07:53:10 51°15.234 2°54.069 337.8 12.3 326.6 7.8
2003-01-21 07:53:14 51°15.246 2°54.057 338.3 12.3 327.6 7.6
2003-01-21 07:53:20 51°15.263 2°54.04 339.2 12.3 328 7.7
2003-01-21 07:53:25 51°15.278 2°54.026 340.2 12.3 329.1 7.5
2003-01-21 07:53:30 51°15.292 2°54.013 341.3 12.3 329.8 7.7
2003-01-21 07:53:34 51°15.304 2°54.002 341.3 12.3 330 7.6
2003-01-21 07:53:40 51°15.322 2°53.985 340.3 12.3 329.6 7.8
2003-01-21 07:53:44 51°15.333 2°53.973 340 12.3 328.8 7.1
2003-01-21 07:53:50 51°15.351 2°53.956 339.7 12.3 328.5 7.5
2003-01-21 07:53:54 51°15.363 2°53.945 339 12.3 328.1 7.9
2003-01-21 07:54:00 51°15.38 2°53.927 339.8 12.3 328.4 -999
2003-01-21 07:54:04 51°15.392 2°53.916 340.5 12.3 329.1 8.3
2003-01-21 07:54:10 51°15.41 2°53.9 340.8 12.3 329.3 8.5
2003-01-21 07:54:14 51°15.421 2°53.888 339.8 12.3 328.7 7.9
2003-01-21 07:54:20 51°15.438 2°53.871 338.2 12.3 327.7 8.1
2003-01-21 07:54:25 51°15.452 2°53.855 337.2 12.3 326.1 7.7
2003-01-21 07:54:30 51°15.467 2°53.84 337.2 12.4 326.3 7.5
2003-01-21 07:54:34 51°15.478 2°53.828 338.5 12.4 327 8.3
2003-01-21 07:54:40 51°15.496 2°53.812 340.2 12.3 328.7 8.5
2003-01-21 07:54:44 51°15.508 2°53.801 341.7 12.3 330.3 7.7
2003-01-21 07:54:50 51°15.526 2°53.786 343 12.3 331.5 8.5
2003-01-21 07:54:55 51°15.541 2°53.772 342.8 12.3 331.5 8.7
2003-01-21 07:55:00 51°15.556 2°53.759 341.8 12.3 330.7 8.5
2003-01-21 07:55:04 51°15.567 2°53.747 339 12.3 328.4 9.1
2003-01-21 07:55:10 51°15.584 2°53.729 337.7 12.1 326.9 9.3
2003-01-21 07:55:15 51°15.597 2°53.715 337 11.9 326.1 9.3
2003-01-21 07:55:20 51°15.611 2°53.7 337 11.8 326 9.2
2003-01-21 07:55:25 51°15.624 2°53.686 337.7 11.5 326.4 8.4
2003-01-21 07:55:30 51°15.637 2°53.673 338.3 11.3 327.2 9.4
2003-01-21 07:55:35 51°15.65 2°53.66 339.8 11.1 328.1 9.5
2003-01-21 07:55:40 51°15.664 2°53.649 342.5 11 330.4 15.4
2003-01-21 07:55:44 51°15.674 2°53.64 344.2 10.8 332.5 15.5
2003-01-21 07:55:50 51°15.69 2°53.628 346.5 10.7 335.1 -999
2003-01-21 07:55:54 51°15.701 2°53.622 351.3 10.4 339.2 15.6
2003-01-21 07:56:00 51°15.717 2°53.616 358.8 10.1 346 15.9
2003-01-21 07:56:04 51°15.728 2°53.615 6.8 9.7 353.8 15.2
2003-01-21 07:56:10 51°15.743 2°53.617 14.2 9.2 359.9 15.6
2003-01-21 07:56:14 51°15.752 2°53.619 20.8 8.5 7.6 16.1
2003-01-21 07:56:20 51°15.765 2°53.624 26.3 8 13.5 15.9
2003-01-21 07:56:25 51°15.774 2°53.63 32.3 7.5 19 15.9
2003-01-21 07:56:30 51°15.783 2°53.637 36.7 7.2 23 16.1
2003-01-21 07:56:36 51°15.793 2°53.645 39.5 6.9 26.7 16.4
2003-01-21 07:56:40 51°15.799 2°53.651 41.5 6.7 28.7 10.1
2003-01-21 07:56:46 51°15.809 2°53.659 42.3 6.5 29.5 16.2
2003-01-21 07:56:50 51°15.814 2°53.665 42.7 6.3 30.9 16.6
2003-01-21 07:56:54 51°15.82 2°53.67 43.3 6.2 30.3 16.5
2003-01-21 07:57:00 51°15.829 2°53.68 45 6.1 32.3 16.2
2003-01-21 07:57:05 51°15.836 2°53.687 46.3 6 33 16.2
2003-01-21 07:57:10 51°15.842 2°53.694 47.3 5.9 34.7 16.2
2003-01-21 07:57:14 51°15.847 2°53.7 48.5 5.8 35.7 16.4
2003-01-21 07:57:20 51°15.855 2°53.709 49.2 5.8 36 9.4
2003-01-21 07:57:26 51°15.863 2°53.718 49.2 5.7 36.3 10.1
2003-01-21 07:57:30 51°15.868 2°53.724 49 5.6 35.9 16.5
2003-01-21 07:57:34 51°15.873 2°53.73 47.7 5.6 34.3 16.2
2003-01-21 07:57:40 51°15.88 2°53.738 46.2 5.5 33.7 16.1
2003-01-21 07:57:46 51°15.888 2°53.745 44.5 5.5 32.1 16.1
2003-01-21 07:57:50 51°15.893 2°53.75 43.2 5.4 30.6 16.3
2003-01-21 07:57:54 51°15.899 2°53.754 42 5.4 29.6 16.5
2003-01-21 07:58:00 51°15.907 2°53.761 42 5.5 29.1 15.7
2003-01-21 07:58:04 51°15.912 2°53.766 43.7 5.4 29.9 16.3
2003-01-21 07:58:10 51°15.919 2°53.774 45.5 5.4 31.5 16.6
2003-01-21 07:58:14 51°15.924 2°53.779 48 5.3 34.2 16.4
2003-01-21 07:58:20 51°15.931 2°53.788 50.3 5.3 35.4 16.1
2003-01-21 07:58:25 51°15.937 2°53.795 52 5.2 38.3 15.9
2003-01-21 07:58:30 51°15.942 2°53.802 52.5 5.2 38.9 16
2003-01-21 07:58:35 51°15.948 2°53.81 52.7 5.1 39.3 15.9
2003-01-21 07:58:40 51°15.953 2°53.817 52.7 5.1 39.5 -999
2003-01-21 07:58:44 51°15.957 2°53.823 51.7 5.1 38.9 16.6
2003-01-21 07:58:50 51°15.964 2°53.831 51.5 5.1 38.8 16.7
2003-01-21 07:58:54 51°15.969 2°53.836 50.8 5.1 37.8 16.7
2003-01-21 07:59:00 51°15.975 2°53.844 50 5.1 37.3 15.9
2003-01-21 07:59:04 51°15.98 2°53.85 49.7 5.1 37 16.8
2003-01-21 07:59:10 51°15.987 2°53.858 49.7 5.1 36.3 9.7
2003-01-21 07:59:14 51°15.991 2°53.863 49.5 5.1 36.5 9.6
2003-01-21 07:59:20 51°15.998 2°53.871 50 5.1 35.9 8.6
2003-01-21 07:59:25 51°16.004 2°53.877 49.5 5.1 36.2 10.2
2003-01-21 07:59:30 51°16.009 2°53.885 50.2 5.1 36.9 9.9
2003-01-21 07:59:34 51°16.014 2°53.89 50.2 5.1 36.6 10.3
2003-01-21 07:59:40 51°16.02 2°53.898 50.3 5 36.8 9.6
2003-01-21 07:59:44 51°16.024 2°53.902 50.8 5 37.5 10
2003-01-21 07:59:50 51°16.031 2°53.91 50.8 5.2 37.4 10.2
2003-01-21 07:59:54 51°16.036 2°53.916 51.3 5.3 37.5 10.1
2003-01-21 08:00:00 51°16.043 2°53.925 51.3 5.5 37.6 9.9
2003-01-21 08:00:04 51°16.048 2°53.931 51.3 5.7 38.9 10.2
2003-01-21 08:00:10 51°16.056 2°53.94 51.2 5.8 38.4 8.9
2003-01-21 08:00:14 51°16.061 2°53.947 50.8 5.9 39 9.3
2003-01-21 08:00:20 51°16.069 2°53.957 50.7 6 38.7 -999
2003-01-21 08:00:25 51°16.075 2°53.965 51.7 6 39.2 10
2003-01-21 08:00:30 51°16.081 2°53.974 53.5 5.9 40.9 10.2
2003-01-21 08:00:35 51°16.087 2°53.982 55 5.6 42.3 10.3
2003-01-21 08:00:40 51°16.092 2°53.99 56.5 5.4 43.6 9.3
2003-01-21 08:00:45 51°16.097 2°53.998 58 5.2 45 9.1
2003-01-21 08:00:50 51°16.101 2°54.006 60 5 46.9 -999
2003-01-21 08:00:55 51°16.106 2°54.014 61.8 4.8 49.5 9.8
2003-01-21 08:01:00 51°16.11 2°54.022 63.2 4.7 50.3 9.9
2003-01-21 08:01:04 51°16.113 2°54.028 64 4.5 51.5 9.6
2003-01-21 08:01:10 51°16.117 2°54.037 64 4.3 51.7 10.3
2003-01-21 08:01:15 51°16.121 2°54.044 63.2 4.2 50.9 10.1
2003-01-21 08:01:20 51°16.124 2°54.05 62.3 4.1 50.5 10
2003-01-21 08:01:26 51°16.129 2°54.058 60.7 3.9 48.1 9.3
2003-01-21 08:01:30 51°16.131 2°54.063 59.8 3.9 47.2 9.8
2003-01-21 08:01:35 51°16.135 2°54.068 59 3.8 46.2 10.3
2003-01-21 08:01:40 51°16.139 2°54.074 58.3 3.7 46.2 10.2
2003-01-21 08:01:45 51°16.142 2°54.08 58 3.7 45.3 10.3
2003-01-21 08:01:50 51°16.146 2°54.085 58.2 3.6 45.3 10
2003-01-21 08:01:54 51°16.148 2°54.09 58.5 3.5 45.7 10.1
2003-01-21 08:02:00 51°16.152 2°54.096 59.5 3.5 46.7 9.3
2003-01-21 08:02:04 51°16.155 2°54.101 61.3 3.4 47.6 10.1
2003-01-21 08:02:10 51°16.158 2°54.108 63.5 3.3 49.6 10.2
2003-01-21 08:02:16 51°16.161 2°54.114 66.3 3.2 52.3 8.4
2003-01-21 08:02:20 51°16.163 2°54.119 68.3 3.2 54.6 8.4
2003-01-21 08:02:26 51°16.166 2°54.127 70.3 3.1 57.9 10.2
2003-01-21 08:02:30 51°16.167 2°54.132 71.5 3 59 10
2003-01-21 08:02:34 51°16.169 2°54.137 72.8 2.9 61.4 10.2
2003-01-21 08:02:40 51°16.171 2°54.144 72.8 2.9 61 8.5
2003-01-21 08:02:45 51°16.173 2°54.15 73.3 2.9 62.7 9.7
2003-01-21 08:02:50 51°16.175 2°54.155 73 2.8 60.9 10.2
2003-01-21 08:02:55 51°16.177 2°54.16 73 2.8 61.7 -999
2003-01-21 08:03:00 51°16.179 2°54.166 72.5 2.8 60 9.6
2003-01-21 08:03:04 51°16.18 2°54.171 72 2.8 60.7 16.7
2003-01-21 08:03:10 51°16.183 2°54.177 71.8 2.8 59.9 16.6
2003-01-21 08:03:15 51°16.184 2°54.183 71.8 2.7 59.9 16.4
2003-01-21 08:03:20 51°16.186 2°54.188 71.2 2.7 59.4 16.6
2003-01-21 08:03:24 51°16.188 2°54.192 69.7 2.7 58 16.6
2003-01-21 08:03:30 51°16.191 2°54.197 67.8 2.6 56.4 16.5
2003-01-21 08:03:36 51°16.193 2°54.202 65.5 2.6 52.4 -999
2003-01-21 08:03:40 51°16.195 2°54.205 63 2.6 50.2 15.9
2003-01-21 08:03:45 51°16.198 2°54.208 60.2 2.6 46 16.2
2003-01-21 08:03:50 51°16.2 2°54.211 57.3 2.6 42 9.5
2003-01-21 08:03:55 51°16.203 2°54.215 54.5 2.6 38.3 10.2
2003-01-21 08:04:00 51°16.206 2°54.218 52 2.6 34.1 10.3
2003-01-21 08:04:04 51°16.209 2°54.22 49.3 2.6 30.1 9
2003-01-21 08:04:10 51°16.213 2°54.223 46.7 2.6 26.8 10.1
2003-01-21 08:04:14 51°16.215 2°54.225 44 2.6 24.5 10
2003-01-21 08:04:20 51°16.22 2°54.227 42.5 2.7 22.3 10.3
2003-01-21 08:04:25 51°16.223 2°54.229 41.7 2.7 20.6 10
2003-01-21 08:04:30 51°16.227 2°54.232 41.7 2.7 21.4 -999
2003-01-21 08:04:35 51°16.231 2°54.234 42.8 2.8 22.3 9.7
2003-01-21 08:04:40 51°16.234 2°54.237 45 2.7 24.4 9.6
2003-01-21 08:04:45 51°16.237 2°54.239 48 2.7 26.8 10.2
2003-01-21 08:04:50 51°16.24 2°54.242 50.8 2.6 28.5 10
2003-01-21 08:04:54 51°16.242 2°54.244 54 2.4 32.2 10.3
2003-01-21 08:05:00 51°16.245 2°54.247 57.3 2.3 35.5 16.8
2003-01-21 08:05:04 51°16.247 2°54.249 60.8 2.2 38.9 16.1
2003-01-21 08:05:10 51°16.25 2°54.252 64 2.1 42.3 16.9
2003-01-21 08:05:14 51°16.251 2°54.255 67.5 1.9 46 15.2
2003-01-21 08:05:20 51°16.253 2°54.259 70.5 1.9 51.9 16.8
2003-01-21 08:05:25 51°16.254 2°54.263 74.2 1.9 55.8 16.1
2003-01-21 08:05:30 51°16.255 2°54.266 78.3 1.8 62.8 16.8
2003-01-21 08:05:34 51°16.256 2°54.269 82.2 1.7 66.2 16
2003-01-21 08:05:40 51°16.256 2°54.273 84.8 1.5 72.7 16.4
2003-01-21 08:05:44 51°16.257 2°54.275 87.7 1.4 74.8 17
2003-01-21 08:05:50 51°16.257 2°54.279 90 1.4 80.1 16.3
2003-01-21 08:05:54 51°16.257 2°54.281 92.5 1.3 85.5 16.8
2003-01-21 08:06:00 51°16.257 2°54.284 94.8 1.3 88.3 16.7
2003-01-21 08:06:05 51°16.257 2°54.287 97 1.2 92.1 16.6
2003-01-21 08:06:10 51°16.257 2°54.29 99.2 1.2 95.7 9.7
2003-01-21 08:06:14 51°16.257 2°54.292 101.3 1.1 100 10.1
2003-01-21 08:06:20 51°16.256 2°54.295 103.2 1 101.6 10.3
2003-01-21 08:06:24 51°16.256 2°54.297 105 1 107 9.2
2003-01-21 08:06:30 51°16.255 2°54.299 106.5 0.9 110.5 10.3
2003-01-21 08:06:34 51°16.255 2°54.3 107.5 0.9 114.7 -999
2003-01-21 08:06:40 51°16.254 2°54.302 108.5 0.8 116.9 6.7
2003-01-21 08:06:46 51°16.253 2°54.303 109.7 0.7 119 5.7
2003-01-21 08:06:50 51°16.253 2°54.304 110.5 0.7 120.3 7.2
2003-01-21 08:06:54 51°16.253 2°54.305 111.2 0.7 120.7 7.8
2003-01-21 08:07:00 51°16.252 2°54.306 111.5 0.6 123.8 9.6
2003-01-21 08:07:05 51°16.252 2°54.307 112 0.5 124.9 9.6
2003-01-21 08:07:10 51°16.251 2°54.308 112.5 0.5 128.8 9.8
2003-01-21 08:07:14 51°16.251 2°54.309 112.8 0.5 128.7 8.9
2003-01-21 08:07:20 51°16.25 2°54.309 113 0.5 132 16.1
2003-01-21 08:07:26 51°16.25 2°54.31 113.5 0.4 135.2 7.9
2003-01-21 08:07:30 51°16.25 2°54.311 113.7 0.4 134.9 -999
2003-01-21 08:07:34 51°16.249 2°54.311 113.8 0.4 136 10.2
2003-01-21 08:07:40 51°16.249 2°54.312 114.2 0.4 142.9 9.6
2003-01-21 08:07:44 51°16.249 2°54.312 114.3 0.3 143.8 10
2003-01-21 08:07:50 51°16.248 2°54.313 114.5 0.3 151.4 10.2
2003-01-21 08:07:54 51°16.248 2°54.313 114.7 0.3 154.4 -999
2003-01-21 08:08:00 51°16.247 2°54.313 114.8 0.3 159.1 7.8
2003-01-21 08:08:05 51°16.247 2°54.313 115 0.3 162.7 9.9
2003-01-21 08:08:10 51°16.247 2°54.314 115.5 0.3 163.5 9.9
2003-01-21 08:08:14 51°16.247 2°54.314 115.8 0.2 168.8 9.5
2003-01-21 08:08:20 51°16.246 2°54.314 116 0.2 178.7 16.6
2003-01-21 08:08:25 51°16.246 2°54.314 116 0.2 189.6 10.1
2003-01-21 08:08:30 51°16.246 2°54.314 115.8 0.2 186.9 8.9
2003-01-21 08:08:34 51°16.245 2°54.314 116 0.2 189.9 10
2003-01-21 08:08:40 51°16.245 2°54.313 116.2 0.2 194.9 10.3
2003-01-21 08:08:45 51°16.245 2°54.313 116.2 0.3 201.5 9.9
2003-01-21 08:08:50 51°16.245 2°54.313 116.3 0.3 206.5 10.3
2003-01-21 08:08:54 51°16.244 2°54.313 116.3 0.3 206.9 9.8
2003-01-21 08:09:00 51°16.244 2°54.312 116.3 0.2 210.3 9.8
2003-01-21 08:09:05 51°16.243 2°54.312 116.7 0.3 206.7 10
2003-01-21 08:09:10 51°16.243 2°54.312 116.8 0.3 207.1 10
2003-01-21 08:09:15 51°16.243 2°54.311 117.2 0.3 209.3 9.7
2003-01-21 08:09:20 51°16.242 2°54.311 117.3 0.3 209.6 10.3
2003-01-21 08:09:25 51°16.242 2°54.31 117.7 0.4 215.4 9.9
2003-01-21 08:09:30 51°16.242 2°54.31 117.7 0.3 219.4 10.2
2003-01-21 08:09:34 51°16.241 2°54.309 117.7 0.3 221 9.7
2003-01-21 08:09:40 51°16.241 2°54.309 117.5 0.3 227 10
2003-01-21 08:09:45 51°16.241 2°54.308 117.3 0.3 231.5 10.2
2003-01-21 08:09:50 51°16.241 2°54.308 117 0.3 238 10.1
2003-01-21 08:09:54 51°16.24 2°54.307 116.3 0.3 243.1 -999
2003-01-21 08:10:00 51°16.24 2°54.306 115.8 0.3 243.9 10.1
2003-01-21 08:10:05 51°16.24 2°54.306 115.3 0.3 244.4 16.3
2003-01-21 08:10:10 51°16.24 2°54.305 114.8 0.3 248.9 10.2
2003-01-21 08:10:14 51°16.24 2°54.305 114.3 0.3 248.1 8.8
2003-01-21 08:10:20 51°16.239 2°54.304 114 0.3 247.6 16.4
2003-01-21 08:10:24 51°16.239 2°54.303 113.7 0.3 248.9 15.8
2003-01-21 08:10:30 51°16.239 2°54.302 113.7 0.3 247.9 8.6
2003-01-21 08:10:34 51°16.239 2°54.302 113.3 0.3 251.3 10.2
2003-01-21 08:10:40 51°16.238 2°54.301 113 0.3 251.7 10.2
2003-01-21 08:10:45 51°16.238 2°54.3 113.2 0.3 249.2 9.7
2003-01-21 08:10:50 51°16.238 2°54.299 113.2 0.3 250.9 9.1
2003-01-21 08:10:54 51°16.238 2°54.299 113.2 0.3 252.7 9.6
2003-01-21 08:11:00 51°16.238 2°54.298 113.2 0.3 252.6 10.2
2003-01-21 08:11:06 51°16.238 2°54.297 113.3 0.3 251.5 8.8
2003-01-21 08:11:10 51°16.238 2°54.296 113.5 0.3 253.2 10.2
2003-01-21 08:11:14 51°16.238 2°54.296 113.5 0.4 251.8 9.6
2003-01-21 08:11:20 51°16.238 2°54.295 113.5 0.4 250.6 9.7
2003-01-21 08:11:25 51°16.237 2°54.294 113.8 0.4 252.2 10.2
2003-01-21 08:11:30 51°16.237 2°54.293 113.8 0.4 256.5 10.2
2003-01-21 08:11:34 51°16.237 2°54.292 113.7 0.4 253.5 -999
2003-01-21 08:11:40 51°16.237 2°54.291 113.7 0.4 252.6 9.6
2003-01-21 08:11:44 51°16.237 2°54.291 113.5 0.4 252.9 9.5
2003-01-21 08:11:50 51°16.236 2°54.29 113.5 0.4 253.3 10
2003-01-21 08:11:54 51°16.236 2°54.289 113.7 0.4 254 9.2
2003-01-21 08:12:00 51°16.236 2°54.288 113.5 0.4 249.5 8.6
2003-01-21 08:12:04 51°16.236 2°54.288 113.7 0.4 250.9 9.1
2003-01-21 08:12:10 51°16.236 2°54.287 113.7 0.4 251.1 10
2003-01-21 08:12:14 51°16.235 2°54.286 113.7 0.3 252.9 10.2
2003-01-21 08:12:20 51°16.235 2°54.285 113.7 0.3 250.8 15.9
2003-01-21 08:12:25 51°16.235 2°54.284 113.7 0.4 253.6 15.9
2003-01-21 08:12:30 51°16.235 2°54.283 114 0.4 254.7 15.8
2003-01-21 08:12:34 51°16.235 2°54.283 114.3 0.4 255.9 15.9
2003-01-21 08:12:40 51°16.235 2°54.282 114.5 0.4 255.8 9.9
2003-01-21 08:12:44 51°16.235 2°54.281 114.7 0.4 254.1 9.5
2003-01-21 08:12:50 51°16.234 2°54.28 114.7 0.4 258.1 9.9
2003-01-21 08:12:54 51°16.234 2°54.279 114.8 0.4 254.7 9.8
2003-01-21 08:13:00 51°16.234 2°54.278 115 0.4 257.2 9.1
2003-01-21 08:13:05 51°16.234 2°54.277 115 0.4 255.4 10.3
2003-01-21 08:13:10 51°16.234 2°54.276 115.2 0.4 255.5 8.9
2003-01-21 08:13:14 51°16.234 2°54.275 115.2 0.4 253.8 9.7
2003-01-21 08:13:20 51°16.233 2°54.274 115 0.4 249.5 10.1
2003-01-21 08:13:25 51°16.233 2°54.273 115.2 0.4 248.1 9.6
2003-01-21 08:13:30 51°16.233 2°54.272 115.2 0.4 246.1 10.2
2003-01-21 08:13:35 51°16.233 2°54.272 115.2 0.4 249.2 9.8
2003-01-21 08:13:40 51°16.233 2°54.271 115 0.4 249.8 9.7
2003-01-21 08:13:45 51°16.233 2°54.27 115 0.4 247.7 8.3
2003-01-21 08:13:50 51°16.232 2°54.269 114.7 0.3 248.9 9.8
2003-01-21 08:13:55 51°16.232 2°54.269 114.2 0.3 245 9.9
2003-01-21 08:14:00 51°16.232 2°54.268 113.5 0.3 242.2 10
2003-01-21 08:14:04 51°16.232 2°54.268 113 0.2 237 9.8
2003-01-21 08:14:10 51°16.232 2°54.267 112.3 0.2 231.9 8.5
2003-01-21 08:14:14 51°16.232 2°54.267 112 0.2 219.4 16.6
2003-01-21 08:14:20 51°16.232 2°54.267 111.3 0.1 205.2 9.5
2003-01-21 08:14:25 51°16.231 2°54.267 110.8 0.2 191.5 10.1
2003-01-21 08:14:30 51°16.231 2°54.267 110.5 0.1 172.1 9.9
2003-01-21 08:14:34 51°16.231 2°54.267 110.2 0.2 168.3 9.8
2003-01-21 08:14:40 51°16.231 2°54.267 109.8 0.2 158.7 9.1
2003-01-21 08:14:45 51°16.23 2°54.267 109.5 0.2 153.8 9.9
2003-01-21 08:14:50 51°16.23 2°54.267 109.5 0.2 145.7 -999
2003-01-21 08:14:55 51°16.23 2°54.268 109.3 0.2 144.8 9.7
2003-01-21 08:15:00 51°16.23 2°54.268 109.2 0.2 142.3 9.8
2003-01-21 08:15:05 51°16.23 2°54.268 109.2 0.3 142.6 16.4
2003-01-21 08:15:11 51°16.229 2°54.269 108.8 0.2 134.8 16.4
2003-01-21 08:15:15 51°16.229 2°54.269 108.5 0.3 132.4 16.8
2003-01-21 08:15:21 51°16.229 2°54.269 108.3 0.3 127.7 16.7
2003-01-21 08:15:25 51°16.228 2°54.27 108.2 0.3 135.3 16.2
2003-01-21 08:15:29 51°16.228 2°54.27 108 0.2 133.9 16.5
2003-01-21 08:15:35 51°16.228 2°54.27 108 0.2 139.5 16.5
2003-01-21 08:15:41 51°16.228 2°54.271 107.8 0.2 134 10.1
2003-01-21 08:15:46 51°16.227 2°54.271 107.5 0.3 139.1 9.7
2003-01-21 08:15:51 51°16.227 2°54.271 107.5 0.2 141 9.5
2003-01-21 08:15:55 51°16.227 2°54.271 107.3 0.2 140.4 10.2
2003-01-21 08:16:01 51°16.227 2°54.272 107.3 0.2 137 9.3
2003-01-21 08:16:06 51°16.227 2°54.272 107 0.2 135.1 10
2003-01-21 08:16:11 51°16.226 2°54.272 106.8 0.2 135.9 10
2003-01-21 08:16:15 51°16.226 2°54.272 106.5 0.2 132.7 10
2003-01-21 08:16:21 51°16.226 2°54.272 106.3 0.2 141 9.8
2003-01-21 08:16:25 51°16.226 2°54.273 106 0.2 136.5 9.7
2003-01-21 08:16:31 51°16.226 2°54.273 105.8 0.2 146.4 9.1
2003-01-21 08:16:35 51°16.226 2°54.273 105.5 0.1 151.1 10
2003-01-21 08:16:41 51°16.225 2°54.273 105.3 0.1 166.4 10.3
2003-01-21 08:16:45 51°16.225 2°54.273 104.8 0.1 156.2 9.7
2003-01-21 08:16:51 51°16.225 2°54.273 104.5 0.1 162.5 9.4
2003-01-21 08:16:55 51°16.225 2°54.273 104.2   143.1 10
2003-01-21 08:17:01 51°16.225 2°54.273 103.8   164.1 9.1
2003-01-21 08:17:05 51°16.225 2°54.273 103.7   118.3 9.3
2003-01-21 08:17:11 51°16.225 2°54.273 103.3   14.9 10.2
2003-01-21 08:17:15 51°16.225 2°54.273 103.2   316.8 10.1
2003-01-21 08:17:21 51°16.225 2°54.273 103 0.1 323.3 9.9
2003-01-21 08:17:25 51°16.225 2°54.273 102.8   256.7 -999
2003-01-21 08:17:31 51°16.225 2°54.273 102.5   189.6 9.8
2003-01-21 08:17:35 51°16.225 2°54.272 102.5   199.2 9.8
2003-01-21 08:17:41 51°16.225 2°54.272 102.5 0.1 200.1 9.9
2003-01-21 08:17:45 51°16.225 2°54.272 102.5 0.1 194.4 9.7
2003-01-21 08:17:51 51°16.225 2°54.272 102.2 0.1 200.1 9.8
2003-01-21 08:17:56 51°16.225 2°54.272 101.8 0.1 202.4 10
2003-01-21 08:18:01 51°16.225 2°54.272 101.7   188.6 10.2
2003-01-21 08:18:05 51°16.225 2°54.272 101.3   183.7 10.1
2003-01-21 08:18:11 51°16.225 2°54.272 101.2 0.1 170 9.6
2003-01-21 08:18:16 51°16.225 2°54.272 101   164.5 10
2003-01-21 08:18:21 51°16.225 2°54.272 101 0.1 165.3 9.9
2003-01-21 08:18:25 51°16.225 2°54.272 101.2 0.1 151.3 9.8
2003-01-21 08:18:31 51°16.224 2°54.272 101.2 0.1 151.6 -999
2003-01-21 08:18:36 51°16.224 2°54.272 100.8 0.1 144.3 -999
2003-01-21 08:18:41 51°16.224 2°54.272 100.7 0.1 138.2 9.6
2003-01-21 08:18:45 51°16.224 2°54.272 100.5 0.1 129.3 9.6
2003-01-21 08:18:51 51°16.224 2°54.272 100.5 0.1 118.5 10.2
2003-01-21 08:18:55 51°16.224 2°54.273 100.5 0.1 111.4 10.1
2003-01-21 08:19:01 51°16.224 2°54.273 100.2 0.1 99.7 9.6
2003-01-21 08:19:05 51°16.224 2°54.273 100 0.1 98.8 16.5
2003-01-21 08:19:11 51°16.224 2°54.273 100 0.1 85.8 15.8
2003-01-21 08:19:15 51°16.224 2°54.273 100.2 0.1 98.4 16.5
2003-01-21 08:19:21 51°16.224 2°54.273 100.2 0.1 82.7 16
2003-01-21 08:19:26 51°16.224 2°54.273 100.3 0.1 75.3 10.2
2003-01-21 08:19:31 51°16.224 2°54.274 100.2 0.1 86 9.5
2003-01-21 08:19:35 51°16.224 2°54.274 100.3 0.1 97.2 9.5
2003-01-21 08:19:41 51°16.224 2°54.274 100.3 0.1 97.5 9.6
2003-01-21 08:19:45 51°16.224 2°54.274 100.3 0.1 102.9 9.5
2003-01-21 08:19:51 51°16.224 2°54.274 100.2   130.4 9.9
2003-01-21 08:19:55 51°16.224 2°54.274 100.2   145.3 9.7
2003-01-21 08:20:01 51°16.224 2°54.274 100   134.3 9.8
2003-01-21 08:20:05 51°16.224 2°54.274 99.8 0.1 158.3 -999
2003-01-21 08:20:11 51°16.224 2°54.274 99.7   139.2 8.5
2003-01-21 08:20:16 51°16.224 2°54.274 99.3   156.5 -999
2003-01-21 08:20:21 51°16.224 2°54.275 99.2   166.9 9.2
2003-01-21 08:20:25 51°16.224 2°54.275 99 0.1 151.2 10.2
2003-01-21 08:20:31 51°16.224 2°54.275 98.8   161.1 9.7
2003-01-21 08:20:35 51°16.224 2°54.275 98.5   110.2 9.4
2003-01-21 08:20:41 51°16.224 2°54.275 98.3   59.4 9.8
2003-01-21 08:20:45 51°16.224 2°54.275 97.8   76.9 10.1
2003-01-21 08:20:51 51°16.224 2°54.275 97.8   112.6 15.9
2003-01-21 08:20:55 51°16.223 2°54.275 97.7   121.5 -999
2003-01-21 08:21:01 51°16.224 2°54.275 97.5   53.5 16.4
2003-01-21 08:21:05 51°16.224 2°54.275 97.2   330.2 16.3
2003-01-21 08:21:11 51°16.223 2°54.275 97.2   304.3 16.4
2003-01-21 08:21:15 51°16.223 2°54.275 97   103.6 15.9
2003-01-21 08:21:21 51°16.224 2°54.275 97   337.9 15.7
2003-01-21 08:21:25 51°16.224 2°54.275 97 0.1 316.9 16.2
2003-01-21 08:21:31 51°16.224 2°54.275 97.2 0.1 304.5 16
2003-01-21 08:21:35 51°16.224 2°54.275 97.2   309.3 -999
2003-01-21 08:21:41 51°16.223 2°54.275 97.5   280.3 16.5
2003-01-21 08:21:46 51°16.223 2°54.275 97.7   296.7 16.5
2003-01-21 08:21:51 51°16.224 2°54.275 97.7 0.1 307.9 10.1
2003-01-21 08:21:55 51°16.224 2°54.274 97.5 0.1 306 9.7
2003-01-21 08:22:01 51°16.224 2°54.274 97.3 0.1 309.8 9.7
2003-01-21 08:22:06 51°16.224 2°54.274 97.2   315.7 10.1
2003-01-21 08:22:11 51°16.224 2°54.274 97.2   310.4 9.8
2003-01-21 08:22:15 51°16.223 2°54.274 97   300.8 9.8
2003-01-21 08:22:21 51°16.224 2°54.274 96.8   323.8 10
2003-01-21 08:22:25 51°16.223 2°54.274 96.7   265.7 10.2
2003-01-21 08:22:31 51°16.224 2°54.274 96.8   318.2 10
2003-01-21 08:22:35 51°16.224 2°54.274 96.8   191.2 10.1
2003-01-21 08:22:39 51°16.224 2°54.274 96.7   91.1 10
2003-01-21 08:22:46 51°16.224 2°54.274 96.7   146.1 16.3
2003-01-21 08:22:51 51°16.224 2°54.274 96.5   161.8 -999
2003-01-21 08:22:55 51°16.224 2°54.274 96.5   150.1 -999
2003-01-21 08:23:01 51°16.224 2°54.274 96.5   106.7 10.1
2003-01-21 08:23:05 51°16.224 2°54.274 96.5   101.6 10.1
2003-01-21 08:23:11 51°16.224 2°54.274 96.3   75.1 9.9
2003-01-21 08:23:15 51°16.224 2°54.274 96.2 0.1 67.9 9.7
2003-01-21 08:23:21 51°16.224 2°54.274 96.3   70.7 10.1
2003-01-21 08:23:26 51°16.224 2°54.274 96.2 0.1 68.3 -999
2003-01-21 08:23:31 51°16.224 2°54.274 96 0.1 74.3 10
2003-01-21 08:23:35 51°16.224 2°54.274 95.8 0.1 90.3 9.9
2003-01-21 08:23:41 51°16.223 2°54.274 96.2 0.1 108.4 9.9
2003-01-21 08:23:46 51°16.223 2°54.274 96.3 0.1 99.4 16.5
2003-01-21 08:23:51 51°16.223 2°54.274 96.3 0.1 154.9 16.5
2003-01-21 08:23:55 51°16.223 2°54.274 96.5 0.1 151.2 15.7
2003-01-21 08:24:01 51°16.223 2°54.274 96.3   135.9 16.5
2003-01-21 08:24:06 51°16.223 2°54.274 96.2   53.4 16.2
2003-01-21 08:24:11 51°16.223 2°54.274 96.2   74.6 15.8
2003-01-21 08:24:15 51°16.223 2°54.273 96   39.3 15.7
2003-01-21 08:24:21 51°16.223 2°54.273 96   236.8 16.1
2003-01-21 08:24:25 51°16.223 2°54.274 96   232.7 15.9
2003-01-21 08:24:31 51°16.223 2°54.274 96.2   197.2 16.1
2003-01-21 08:24:35 51°16.223 2°54.274 96.7   189.1 16.3
2003-01-21 08:24:41 51°16.223 2°54.274 96.5   178.2 15.9
2003-01-21 08:24:45 51°16.223 2°54.274 96.7   182.4 16
2003-01-21 08:24:51 51°16.223 2°54.274 96.8   187.6 16.4
2003-01-21 08:24:56 51°16.223 2°54.274 97   175.8 16
2003-01-21 08:25:00 51°16.223 2°54.274 97   250.2 -999
2003-01-21 08:25:05 51°16.223 2°54.274 97   246.6 -999
2003-01-21 08:25:11 51°16.223 2°54.274 97.2   280 10.1
2003-01-21 08:25:15 51°16.223 2°54.274 96.8   277.8 9.9
2003-01-21 08:25:21 51°16.223 2°54.274 96.7   253.3 10.1
2003-01-21 08:25:25 51°16.223 2°54.274 96.3   73.2 9.6
2003-01-21 08:25:31 51°16.223 2°54.274 96.2   143.3 10
2003-01-21 08:25:36 51°16.223 2°54.274 96.2   47.9 16.6
2003-01-21 08:25:41 51°16.223 2°54.274 96   146.7 15.8
2003-01-21 08:25:45 51°16.223 2°54.274 96   100.7 16.1
2003-01-21 08:25:51 51°16.223 2°54.275 96 0.1 146.6 16.5
2003-01-21 08:25:55 51°16.223 2°54.275 96.3   135.8 16.1
2003-01-21 08:26:01 51°16.223 2°54.275 96.3 0.1 146.7 15.6
2003-01-21 08:26:05 51°16.223 2°54.275 96.2   77.7 16.5
2003-01-21 08:26:11 51°16.223 2°54.274 96.2   62.4 16.1
2003-01-21 08:26:15 51°16.222 2°54.274 96.3   82.4 15.7
2003-01-21 08:26:21 51°16.223 2°54.275 96.3   59.3 15.8
2003-01-21 08:26:25 51°16.223 2°54.275 96.2   85.2 16.4
2003-01-21 08:26:31 51°16.223 2°54.275 96 0.1 33.8 16.4
2003-01-21 08:26:35 51°16.223 2°54.275 96   105.4 16.3
2003-01-21 08:26:41 51°16.223 2°54.275 96.2   47.9 10
2003-01-21 08:26:45 51°16.223 2°54.275 96   112 9.6
2003-01-21 08:26:51 51°16.223 2°54.275 96   147.1 9.9
2003-01-21 08:26:55 51°16.222 2°54.275 96.2 0.1 171.1 16.2
2003-01-21 08:26:59 51°16.222 2°54.275 96   163.4 16.2
2003-01-21 08:27:06 51°16.222 2°54.275 96.2 0.1 156.2 16.3
2003-01-21 08:27:11 51°16.221 2°54.274 96.3   158.8 16.5
2003-01-21 08:27:16 51°16.221 2°54.274 96.2   164.8 16.2
2003-01-21 08:27:21 51°16.221 2°54.274 96   19.3 16.4
2003-01-21 08:27:25 51°16.221 2°54.274 95.7   1.6 16.2
2003-01-21 08:27:31 51°16.221 2°54.275 95.7   3.7 16.1
2003-01-21 08:27:35 51°16.222 2°54.275 95.5   352.7 16.2
2003-01-21 08:27:41 51°16.222 2°54.274 95.2   262 16.4
2003-01-21 08:27:46 51°16.222 2°54.275 95   252 15.8
2003-01-21 08:27:51 51°16.223 2°54.275 94.7   232.3 16.5
2003-01-21 08:27:55 51°16.223 2°54.275 94.7   185.7 9.5
2003-01-21 08:28:01 51°16.223 2°54.275 94.7   178.9 10.1
2003-01-21 08:28:06 51°16.223 2°54.275 94.8   188.6 16
2003-01-21 08:28:09 51°16.223 2°54.275 94.8   173.1 9.7
2003-01-21 08:28:16 51°16.223 2°54.275 94.7 0.1 171.8 10
2003-01-21 08:28:21 51°16.223 2°54.275 94.7   176.5 -999
2003-01-21 08:28:25 51°16.223 2°54.275 94.5   166.1 16.4
2003-01-21 08:28:31 51°16.223 2°54.275 94.3   188.2 16.5
2003-01-21 08:28:35 51°16.223 2°54.275 94.3   175.6 16.3
2003-01-21 08:28:41 51°16.223 2°54.275 94.2   163.4 16
2003-01-21 08:28:46 51°16.223 2°54.275 94.2   165.2 16.4
2003-01-21 08:28:51 51°16.223 2°54.275 94.2   133.6 15.7
2003-01-21 08:28:56 51°16.223 2°54.275 94   81 16
2003-01-21 08:29:01 51°16.223 2°54.275 93.7   129.3 16.3
2003-01-21 08:29:06 51°16.223 2°54.275 93.8   129.6 16.5
2003-01-21 08:29:11 51°16.222 2°54.275 93.7 0.1 108.6 9.9
2003-01-21 08:29:15 51°16.222 2°54.275 93.7 0.1 128.3 9.4
2003-01-21 08:29:21 51°16.222 2°54.275 93.5 0.1 110.1 8.9
2003-01-21 08:29:25 51°16.222 2°54.275 93.5 0.1 122 16.2
2003-01-21 08:29:31 51°16.221 2°54.276 93.3 0.1 104.5 9.1
2003-01-21 08:29:35 51°16.221 2°54.276 93.2 0.1 98.5 9.9
2003-01-21 08:29:41 51°16.221 2°54.276 93.2 0.1 104.7 9.3
2003-01-21 08:29:45 51°16.221 2°54.276 93.2 0.1 102.2 10
2003-01-21 08:29:51 51°16.22 2°54.276 93.3 0.1 108.5 9.8
2003-01-21 08:29:55 51°16.22 2°54.276 93.2 0.1 97.8 10.1
2003-01-21 08:30:01 51°16.22 2°54.277 93.2 0.1 96.1 9.8
2003-01-21 08:30:05 51°16.22 2°54.277 93.2 0.1 86.4 10.1
2003-01-21 08:30:11 51°16.221 2°54.277 93.2 0.1 93.7 10
2003-01-21 08:30:15 51°16.221 2°54.277 92.8 0.1 59.1 15.9
2003-01-21 08:30:21 51°16.221 2°54.278 92.5 0.1 84.8 16.4
2003-01-21 08:30:25 51°16.221 2°54.278 92.2 0.1 76.4 -999
2003-01-21 08:30:31 51°16.221 2°54.278 92 0.1 77.9 16.4
2003-01-21 08:30:35 51°16.221 2°54.278 91.7 0.1 58.1 15.5
2003-01-21 08:30:41 51°16.221 2°54.278 91.5 0.1 61 16
2003-01-21 08:30:46 51°16.221 2°54.278 91.2 0.1 24.7 16.5
2003-01-21 08:30:51 51°16.221 2°54.278 91   29.4 16.2
2003-01-21 08:30:55 51°16.221 2°54.278 90.8 0.1 7.5 16
2003-01-21 08:30:59 51°16.222 2°54.279 90.7 0.1 9.9 16.3
2003-01-21 08:31:05 51°16.222 2°54.279 90.7 0.1 354.4 16.5
2003-01-21 08:31:11 51°16.222 2°54.279 90.7 0.1 345.2 16.3
2003-01-21 08:31:15 51°16.222 2°54.279 90.5 0.1 335.6 -999
2003-01-21 08:31:21 51°16.222 2°54.279 90.5 0.1 327.9 16.2
2003-01-21 08:31:25 51°16.223 2°54.279 90.5 0.1 326.9 16.2
2003-01-21 08:31:31 51°16.223 2°54.279 90.2 0.1 320.4 16.3
2003-01-21 08:31:35 51°16.223 2°54.279 90.2 0.1 326.3 16.3
2003-01-21 08:31:41 51°16.223 2°54.278 89.8 0.1 330.8 16.5
2003-01-21 08:31:46 51°16.223 2°54.278 89.7 0.1 330.2 15.6
2003-01-21 08:31:51 51°16.224 2°54.278 89.8 0.2 328.4 15.4
2003-01-21 08:31:56 51°16.224 2°54.278 89.8 0.1 319.2 15.9
2003-01-21 08:32:01 51°16.224 2°54.278 90 0.1 310 10.1
2003-01-21 08:32:06 51°16.224 2°54.278 90.2 0.1 305 9
2003-01-21 08:32:11 51°16.224 2°54.277 90.3 0.1 302 10
2003-01-21 08:32:15 51°16.224 2°54.277 90.7 0.1 313.4 10.1
2003-01-21 08:32:21 51°16.224 2°54.277 90.7 0.1 306.2 15.8
2003-01-21 08:32:26 51°16.224 2°54.277 91 0.1 297.3 16.1
2003-01-21 08:32:31 51°16.224 2°54.277 91.2 0.1 308.1 16.2
2003-01-21 08:32:35 51°16.224 2°54.277 91.3 0.1 304.6 16
2003-01-21 08:32:41 51°16.224 2°54.276 91.7 0.1 301.9 16.4
2003-01-21 08:32:45 51°16.224 2°54.276 91.8 0.1 294.6 16.4
2003-01-21 08:32:51 51°16.224 2°54.276 91.8 0.1 291.5 15.6
2003-01-21 08:32:56 51°16.224 2°54.276 92 0.1 283.6 16.4
2003-01-21 08:33:01 51°16.224 2°54.275 92 0.1 286.4 16.3
2003-01-21 08:33:06 51°16.224 2°54.275 91.8 0.1 287.6 16.3
2003-01-21 08:33:11 51°16.224 2°54.275 92 0.1 287 9.9
2003-01-21 08:33:15 51°16.225 2°54.274 91.8 0.1 295.5 10
2003-01-21 08:33:21 51°16.224 2°54.274 92 0.1 282.2 8.9
2003-01-21 08:33:25 51°16.225 2°54.274 91.8 0.2 299.1 9.7
2003-01-21 08:33:31 51°16.225 2°54.273 91.5 0.2 310.2 9.9
2003-01-21 08:33:35 51°16.225 2°54.273 91.3 0.2 307.8 9.6
2003-01-21 08:33:41 51°16.225 2°54.273 91.5 0.1 295.9 9.7
2003-01-21 08:33:46 51°16.225 2°54.273 91.5 0.1 293.8 10.1
2003-01-21 08:33:51 51°16.225 2°54.272 91.8 0.1 283.9 9.2
2003-01-21 08:33:55 51°16.225 2°54.272 92 0.1 295.5 10
2003-01-21 08:34:01 51°16.225 2°54.272 92 0.1 300.7 10
2003-01-21 08:34:05 51°16.225 2°54.272 92.3 0.1 310.1 9.7
2003-01-21 08:34:11 51°16.226 2°54.272 92.5 0.1 313.8 10.2
2003-01-21 08:34:16 51°16.226 2°54.272 92.8 0.1 316.7 9.4
2003-01-21 08:34:21 51°16.226 2°54.271 93 0.1 313.8 8.8
2003-01-21 08:34:25 51°16.226 2°54.271 93.5 0.1 304.9 9.8
2003-01-21 08:34:31 51°16.226 2°54.271 93.7 0.1 280.2 10.2
2003-01-21 08:34:35 51°16.226 2°54.271 94 0.1 273.4 9.7
2003-01-21 08:34:41 51°16.226 2°54.271 94.3 0.1 255.6 10
2003-01-21 08:34:46 51°16.225 2°54.271 94.7   245.5 9.9
2003-01-21 08:34:51 51°16.225 2°54.271 94.8   211.4 -999
2003-01-21 08:34:55 51°16.225 2°54.271 95.2   164.5 9.6
2003-01-21 08:35:01 51°16.225 2°54.271 95.3   134 16.5
2003-01-21 08:35:06 51°16.225 2°54.271 95.7 0.1 128.5 16.2
2003-01-21 08:35:11 51°16.225 2°54.271 96.2 0.1 137.7 16.5
2003-01-21 08:35:15 51°16.225 2°54.271 96.2 0.1 91.4 16.1
2003-01-21 08:35:21 51°16.225 2°54.272 96.3 0.1 88.6 15.6
2003-01-21 08:35:25 51°16.225 2°54.272 96.3 0.1 87.8 9.7
2003-01-21 08:35:31 51°16.225 2°54.272 96.5 0.1 94 9.6
2003-01-21 08:35:35 51°16.225 2°54.272 96.5 0.1 75.2 7.9
2003-01-21 08:35:41 51°16.225 2°54.272 96.5 0.1 71.7 9.9
2003-01-21 08:35:45 51°16.225 2°54.272 96.5 0.1 73.1 9.9
2003-01-21 08:35:51 51°16.225 2°54.273 96.5 0.1 112.2 10.1
2003-01-21 08:35:55 51°16.225 2°54.273 96.7 0.1 133.9 9.5
2003-01-21 08:36:01 51°16.225 2°54.273 96.7 0.1 147.9 9.7
2003-01-21 08:36:05 51°16.225 2°54.273 96.8 0.2 164.5 9.8
2003-01-21 08:36:11 51°16.225 2°54.273 96.7 0.1 162.7 10
2003-01-21 08:36:15 51°16.224 2°54.273 96.7 0.1 142.3 9.9
2003-01-21 08:36:21 51°16.225 2°54.273 96.5 0.1 100.8 8
2003-01-21 08:36:25 51°16.224 2°54.273 96.3 0.1 84.8 16.1
2003-01-21 08:36:31 51°16.225 2°54.273 96 0.1 70.4 -999
2003-01-21 08:36:35 51°16.224 2°54.273 95.7 0.1 104.3 15.3
2003-01-21 08:36:41 51°16.224 2°54.274 95.5 0.1 93.4 -999
2003-01-21 08:36:46 51°16.224 2°54.274 95.5 0.1 106.9 9.4
2003-01-21 08:36:51 51°16.224 2°54.274 95.3   97.5 10
2003-01-21 08:36:55 51°16.224 2°54.274 95.7   146.5 10.2
2003-01-21 08:37:01 51°16.224 2°54.274 95.7 0.1 148.5 9.3
2003-01-21 08:37:05 51°16.224 2°54.274 95.7   112.7 9.5
2003-01-21 08:37:11 51°16.224 2°54.274 96   80.7 9.9
2003-01-21 08:37:15 51°16.224 2°54.274 96   146.8 9.9
2003-01-21 08:37:21 51°16.224 2°54.274 96.3   168.7 10.1
2003-01-21 08:37:25 51°16.224 2°54.274 96.7   158.8 10.1
2003-01-21 08:37:31 51°16.224 2°54.274 97.2   172.8 9
2003-01-21 08:37:35 51°16.224 2°54.274 97.7   183.7 10.1
2003-01-21 08:37:41 51°16.224 2°54.274 98.2 0.1 181.9 9.8
2003-01-21 08:37:46 51°16.224 2°54.274 98.5   198.2 9.2
2003-01-21 08:37:51 51°16.224 2°54.274 98.5   27.3 9.4
2003-01-21 08:37:55 51°16.224 2°54.274 98.7   208.8 9.8
2003-01-21 08:38:01 51°16.223 2°54.274 98.7   205.4 -999
2003-01-21 08:38:05 51°16.223 2°54.274 98.5   189.7 9.7
2003-01-21 08:38:11 51°16.223 2°54.274 98.2   172.6 10.1
2003-01-21 08:38:15 51°16.223 2°54.274 98.2   147.9 9.9
2003-01-21 08:38:21 51°16.223 2°54.274 98   113.1 10.1
2003-01-21 08:38:25 51°16.223 2°54.274 98 0.1 148.2 9.9
2003-01-21 08:38:31 51°16.223 2°54.275 97.8 0.1 150.6 9.9
2003-01-21 08:38:36 51°16.223 2°54.275 97.8 0.1 145 9.1
2003-01-21 08:38:41 51°16.223 2°54.275 97.7 0.1 133 10
2003-01-21 08:38:45 51°16.223 2°54.275 97.3 0.1 114.6 10.1
2003-01-21 08:38:51 51°16.222 2°54.276 97.3 0.1 109.8 9.8
2003-01-21 08:38:55 51°16.222 2°54.276 97.2 0.1 109 9.7
2003-01-21 08:39:01 51°16.222 2°54.276 97 0.1 115.6 10
2003-01-21 08:39:05 51°16.222 2°54.276 96.8 0.1 121.8 10
2003-01-21 08:39:11 51°16.222 2°54.276 96.8 0.1 123.5 15.5
2003-01-21 08:39:15 51°16.222 2°54.277 96.7 0.1 110.2 16.1
2003-01-21 08:39:21 51°16.222 2°54.277 96.7 0.1 124.2 16.1
2003-01-21 08:39:25 51°16.222 2°54.277 96.7 0.1 116.9 16.2
2003-01-21 08:39:31 51°16.222 2°54.277 96.7 0.1 115.9 16.3
2003-01-21 08:39:35 51°16.222 2°54.278 96.7 0.1 108.6 16.4
2003-01-21 08:39:41 51°16.222 2°54.278 96.5 0.1 98.8 15.9
2003-01-21 08:39:45 51°16.222 2°54.278 96.3 0.1 93.7 9.9
2003-01-21 08:39:51 51°16.222 2°54.278 96.5 0.1 101.6 9.5
2003-01-21 08:39:55 51°16.222 2°54.278 96.7 0.1 115.4 9.5
2003-01-21 08:40:01 51°16.222 2°54.279 96.8 0.1 120.7 10.1
2003-01-21 08:40:05 51°16.222 2°54.279 96.7 0.1 96.2 9.7
2003-01-21 08:40:11 51°16.222 2°54.279 96.8 0.1 114.7 9.9
2003-01-21 08:40:15 51°16.222 2°54.279 97 0.1 109.9 10
2003-01-21 08:40:21 51°16.221 2°54.279 97.2 0.1 139.7 10.1
2003-01-21 08:40:25 51°16.221 2°54.279 96.8 0.1 131.2 10
2003-01-21 08:40:31 51°16.221 2°54.279 96.8   86.3 10.1
2003-01-21 08:40:35 51°16.221 2°54.279 96.5   117.2 9.9
2003-01-21 08:40:41 51°16.221 2°54.279 96.3 0.1 117.7 9.7
2003-01-21 08:40:45 51°16.221 2°54.279 96.5   117.8 10.1
2003-01-21 08:40:51 51°16.221 2°54.279 96.5 0.1 148.9 9
2003-01-21 08:40:55 51°16.221 2°54.279 96.5 0.1 163.5 9.9
2003-01-21 08:41:01 51°16.221 2°54.279 96.3   158.3 10.1
2003-01-21 08:41:05 51°16.221 2°54.279 96.2   164.5 10.2
2003-01-21 08:41:11 51°16.221 2°54.279 95.8   148.3 9.6
2003-01-21 08:41:15 51°16.221 2°54.279 95.7   148.4 15.7
2003-01-21 08:41:21 51°16.221 2°54.279 95.5   158.5 15.7
2003-01-21 08:41:25 51°16.221 2°54.279 95   181.8 16.4
2003-01-21 08:41:31 51°16.221 2°54.279 94.5   164.8 16.3
2003-01-21 08:41:35 51°16.221 2°54.279 94.5   172.6 15.6
2003-01-21 08:41:41 51°16.221 2°54.279 94.3   166.1 9.9
2003-01-21 08:41:45 51°16.22 2°54.279 94.5   170 9.4
2003-01-21 08:41:51 51°16.22 2°54.279 94.3   145.3 10.1
2003-01-21 08:41:55 51°16.22 2°54.279 94.2 0.1 152 10.1
2003-01-21 08:42:01 51°16.22 2°54.28 93.8   94.5 10
2003-01-21 08:42:05 51°16.22 2°54.28 93.5   109.6 10.1
2003-01-21 08:42:11 51°16.22 2°54.28 93.2   61.6 9.9
2003-01-21 08:42:15 51°16.22 2°54.28 93.2   80.2 10
2003-01-21 08:42:20 51°16.22 2°54.28 93   70.8 9.8
2003-01-21 08:42:26 51°16.22 2°54.28 93.2 0.1 78.9 9.9
2003-01-21 08:42:31 51°16.22 2°54.281 93.2 0.1 61.8 9.9
2003-01-21 08:42:35 51°16.22 2°54.281 93.3 0.1 105.1 9.9
2003-01-21 08:42:41 51°16.22 2°54.281 93.5 0.1 77.9 9.9
2003-01-21 08:42:45 51°16.22 2°54.281 93.7 0.1 82.2 9.8
2003-01-21 08:42:51 51°16.22 2°54.281 93.7 0.1 86.2 10
2003-01-21 08:42:55 51°16.22 2°54.281 93.8 0.1 110.6 9.6
2003-01-21 08:43:01 51°16.22 2°54.281 94 0.1 102 10
2003-01-21 08:43:05 51°16.22 2°54.282 94 0.1 71.7 9.6
2003-01-21 08:43:11 51°16.22 2°54.282 93.8 0.1 80.1 9.7
2003-01-21 08:43:15 51°16.22 2°54.282 93.7 0.1 79.3 9.6
2003-01-21 08:43:21 51°16.219 2°54.282 93.7 0.1 113.3 9.7
2003-01-21 08:43:25 51°16.22 2°54.282 93.7 0.1 106.5 -999
2003-01-21 08:43:31 51°16.219 2°54.282 93.5 0.1 119.5 15.6
2003-01-21 08:43:35 51°16.219 2°54.282 93.3 0.1 118.1 9.7
2003-01-21 08:43:41 51°16.219 2°54.282 93.2 0.1 119.8 -999
2003-01-21 08:43:45 51°16.219 2°54.282 93   111.7 9
2003-01-21 08:43:49 51°16.219 2°54.282 92.7 0.1 140.3 9.9
2003-01-21 08:43:55 51°16.219 2°54.282 92.5   133.2 9.9
2003-01-21 08:44:00 51°16.219 2°54.283 92.7   121.7 10.1
2003-01-21 08:44:06 51°16.219 2°54.283 92.7   120.9 -999
2003-01-21 08:44:11 51°16.219 2°54.283 92.5   144 10
2003-01-21 08:44:16 51°16.219 2°54.283 92.3   139.8 10.1
2003-01-21 08:44:20 51°16.219 2°54.283 92.3   117.5 10
2003-01-21 08:44:26 51°16.219 2°54.283 92.2   64 9.7
2003-01-21 08:44:31 51°16.219 2°54.283 92.3   94 10
2003-01-21 08:44:36 51°16.219 2°54.283 92.3   132.3 8.7
2003-01-21 08:44:40 51°16.219 2°54.283 92.2   165.8 9
2003-01-21 08:44:46 51°16.219 2°54.283 91.8 0.1 155.1 9.8
2003-01-21 08:44:51 51°16.219 2°54.283 91.3   130.9 -999
2003-01-21 08:44:56 51°16.219 2°54.283 91.3 0.1 126.2 9.9
2003-01-21 08:45:00 51°16.219 2°54.283 91.3   119.7 9.4
2003-01-21 08:45:06 51°16.219 2°54.283 90.8   125.9 9.6
2003-01-21 08:45:10 51°16.218 2°54.283 90.7   118.1 10.1
2003-01-21 08:45:16 51°16.218 2°54.283 90.5 0.1 134.8 9.9
2003-01-21 08:45:20 51°16.218 2°54.283 90.3   131.2 9.8
2003-01-21 08:45:26 51°16.218 2°54.283 90   83.1 9.8
2003-01-21 08:45:30 51°16.219 2°54.283 89.8 0.1 32.5 9.8
2003-01-21 08:45:36 51°16.219 2°54.283 90 0.1 29 10.1
2003-01-21 08:45:40 51°16.219 2°54.283 89.8 0.1 12.3 10.1
2003-01-21 08:45:46 51°16.219 2°54.283 90 0.1 4 10
2003-01-21 08:45:50 51°16.219 2°54.283 90 0.1 358.5 9.5
2003-01-21 08:45:56 51°16.219 2°54.283 90.3 0.1 343 9.4
2003-01-21 08:46:00 51°16.219 2°54.283 90.3   338.7 9.7
2003-01-21 08:46:06 51°16.219 2°54.283 90.7   241 8.6
2003-01-21 08:46:11 51°16.219 2°54.283 90.7   264.7 9.7
2003-01-21 08:46:16 51°16.219 2°54.283 90.8   235.1 9.7
2003-01-21 08:46:20 51°16.219 2°54.283 91   233.7 10.1
2003-01-21 08:46:26 51°16.219 2°54.283 90.8   220 9.9
2003-01-21 08:46:30 51°16.219 2°54.283 91   224.8 9.8
2003-01-21 08:46:36 51°16.219 2°54.283 90.8   252.8 9.8
2003-01-21 08:46:40 51°16.219 2°54.283 90.5   244.2 16
2003-01-21 08:46:46 51°16.219 2°54.283 90.3   309.2 15.8
2003-01-21 08:46:50 51°16.218 2°54.283 90.2   0.9 10.1
2003-01-21 08:46:56 51°16.218 2°54.283 89.8   340.8 10
2003-01-21 08:47:00 51°16.218 2°54.283 90   173.5 9.7
2003-01-21 08:47:06 51°16.218 2°54.283 89.7   310.2 16.5
2003-01-21 08:47:10 51°16.218 2°54.283 89.5   242.4 16.1
2003-01-21 08:47:16 51°16.219 2°54.283 89.3   129.8 15.9
2003-01-21 08:47:20 51°16.219 2°54.283 89.3   158 16
2003-01-21 08:47:26 51°16.219 2°54.283 89   108.1 15.9
2003-01-21 08:47:30 51°16.219 2°54.283 89   131.1 14.8
2003-01-21 08:47:36 51°16.219 2°54.283 89.2   116 16.2
2003-01-21 08:47:40 51°16.219 2°54.283 89   92.4 16.2
2003-01-21 08:47:46 51°16.219 2°54.283 89.2   113.2 16.2
2003-01-21 08:47:50 51°16.219 2°54.283 89.2   70.1 15.6
2003-01-21 08:47:56 51°16.219 2°54.283 89   107.8 16.2
2003-01-21 08:48:00 51°16.219 2°54.283 88.7   72.1 -999
2003-01-21 08:48:06 51°16.219 2°54.284 88.8 0.1 113.2 9.9
2003-01-21 08:48:10 51°16.219 2°54.284 88.8 0.1 64.7 10
2003-01-21 08:48:16 51°16.219 2°54.284 88.5 0.1 87.2 9.9
2003-01-21 08:48:20 51°16.219 2°54.284 88.5 0.1 86.6 10.1
2003-01-21 08:48:26 51°16.219 2°54.284 88 0.1 74.7 10
2003-01-21 08:48:31 51°16.219 2°54.284 88.2 0.1 50.3 9.7
2003-01-21 08:48:36 51°16.219 2°54.284 88.2   93.8 9.9
2003-01-21 08:48:40 51°16.219 2°54.284 88.2   96.8 9.8
2003-01-21 08:48:46 51°16.219 2°54.284 88.2   95.1 8.9
2003-01-21 08:48:50 51°16.219 2°54.284 88.3   60.8 10.1
2003-01-21 08:48:56 51°16.219 2°54.284 88.5   8 -999
2003-01-21 08:49:00 51°16.219 2°54.284 88.3   356.9 16.1
2003-01-21 08:49:06 51°16.219 2°54.284 88.3   338.2 -999
2003-01-21 08:49:11 51°16.219 2°54.284 88.2   337.1 16
2003-01-21 08:49:16 51°16.219 2°54.284 88.2   344.1 16.2
2003-01-21 08:49:21 51°16.219 2°54.284 88 0.1 336.8 16.5
2003-01-21 08:49:26 51°16.219 2°54.284 87.8   311.4 10
2003-01-21 08:49:30 51°16.219 2°54.284 87.8   295.9 9.4
2003-01-21 08:49:35 51°16.219 2°54.284 88   267.6 7.9
2003-01-21 08:49:39 51°16.219 2°54.284 88.2   267.3 10.1
2003-01-21 08:49:46 51°16.219 2°54.284 88.3 0.1 243 8.6
2003-01-21 08:49:50 51°16.219 2°54.284 88.5 0.1 249.6 10
2003-01-21 08:49:56 51°16.219 2°54.284 88.7   279.9 10.2
2003-01-21 08:50:00 51°16.219 2°54.284 88.8   254 10.1
2003-01-21 08:50:06 51°16.219 2°54.283 88.8   239.1 -999
2003-01-21 08:50:10 51°16.219 2°54.283 88.8 0.1 247.8 16.3
2003-01-21 08:50:16 51°16.219 2°54.283 88.7 0.1 270.7 9.7
2003-01-21 08:50:20 51°16.219 2°54.283 88.5   271.1 9.9
2003-01-21 08:50:26 51°16.219 2°54.283 88.3 0.1 282.1 10
2003-01-21 08:50:31 51°16.219 2°54.283 88 0.1 280.1 9.6
2003-01-21 08:50:36 51°16.219 2°54.283 87.8 0.1 285.6 9.9
2003-01-21 08:50:40 51°16.219 2°54.282 87.7 0.1 284.3 9.1
2003-01-21 08:50:46 51°16.219 2°54.282 87.7 0.1 294.5 9.8
2003-01-21 08:50:50 51°16.219 2°54.282 87.7 0.1 309.4 16.4
2003-01-21 08:50:56 51°16.219 2°54.282 87.3 0.1 303.3 16.4
2003-01-21 08:51:00 51°16.219 2°54.282 86.8 0.1 309.7 15.7
2003-01-21 08:51:06 51°16.219 2°54.282 86.7 0.1 308.8 9.4
2003-01-21 08:51:11 51°16.219 2°54.282 86.5 0.1 300.8 9.8
2003-01-21 08:51:16 51°16.219 2°54.282 86.7 0.1 316.1 16.1
2003-01-21 08:51:21 51°16.219 2°54.281 86.8 0.1 308.2 10
2003-01-21 08:51:26 51°16.219 2°54.281 87.2 0.1 284.4 -999
2003-01-21 08:51:31 51°16.219 2°54.281 87.2 0.1 285.8 10
2003-01-21 08:51:36 51°16.219 2°54.281 87.3 0.1 297.9 9.9
2003-01-21 08:51:41 51°16.219 2°54.281 87.2 0.1 301.6 9.8
2003-01-21 08:51:46 51°16.219 2°54.281 87.5 0.1 296.4 -999
2003-01-21 08:51:50 51°16.219 2°54.281 87.3 0.1 315 8.8
2003-01-21 08:51:56 51°16.219 2°54.281 87.2 0.1 315.3 9.9
2003-01-21 08:52:00 51°16.219 2°54.281 87 0.1 309.6 10
2003-01-21 08:52:06 51°16.219 2°54.28 86.8 0.1 294.2 10.1
2003-01-21 08:52:10 51°16.219 2°54.28 87 0.1 302.9 10.1
2003-01-21 08:52:16 51°16.219 2°54.28 87   296 10.2
2003-01-21 08:52:20 51°16.219 2°54.28 87.2 0.1 319.5 9.6
2003-01-21 08:52:26 51°16.219 2°54.28 87.3 0.1 319.2 9.7
2003-01-21 08:52:30 51°16.219 2°54.28 87.5 0.1 336.3 9.5
2003-01-21 08:52:36 51°16.219 2°54.28 87.7   282.3 10
2003-01-21 08:52:40 51°16.219 2°54.28 87.8   279 8.9
2003-01-21 08:52:46 51°16.219 2°54.28 88.3   314.1 10
2003-01-21 08:52:50 51°16.219 2°54.28 88.5   238.2 8.5
2003-01-21 08:52:56 51°16.219 2°54.28 88.3   342 9.4
2003-01-21 08:53:00 51°16.219 2°54.28 88.5   355.6 10.1
2003-01-21 08:53:05 51°16.219 2°54.28 88.3   359 9.8
2003-01-21 08:53:10 51°16.219 2°54.28 88.7   15.6 9.8
2003-01-21 08:53:16 51°16.219 2°54.28 88.7   28.2 9
2003-01-21 08:53:20 51°16.219 2°54.28 89   67.1 9.6
2003-01-21 08:53:26 51°16.219 2°54.28 89.2   91.9 9.9
2003-01-21 08:53:30 51°16.219 2°54.28 89.3   121.7 9.8
2003-01-21 08:53:35 51°16.219 2°54.281 89.5 0.1 116.7 16.1
2003-01-21 08:53:40 51°16.219 2°54.281 89.7 0.1 118.5 15.8
2003-01-21 08:53:46 51°16.219 2°54.281 90 0.1 122.7 10.1
2003-01-21 08:53:50 51°16.219 2°54.281 90 0.1 126.7 10.1
2003-01-21 08:53:56 51°16.219 2°54.281 89.8   122.6 9.9
2003-01-21 08:54:00 51°16.219 2°54.281 89.8 0.1 98 9.6
2003-01-21 08:54:04 51°16.219 2°54.281 89.8 0.1 91.8 9.8
2003-01-21 08:54:10 51°16.219 2°54.281 89.5   93.1 10
2003-01-21 08:54:16 51°16.219 2°54.281 89.5 0.1 124.2 10.1
2003-01-21 08:54:20 51°16.219 2°54.281 89.3 0.1 134.7 9.8
2003-01-21 08:54:26 51°16.219 2°54.281 89.2 0.1 129.6 9.9
2003-01-21 08:54:30 51°16.219 2°54.282 88.8 0.1 134 9.8
2003-01-21 08:54:36 51°16.219 2°54.282 88.7   119.2 9.6
2003-01-21 08:54:40 51°16.219 2°54.282 88.7 0.1 137.6 9.2
2003-01-21 08:54:46 51°16.219 2°54.282 88.5 0.1 102.1 15.5
2003-01-21 08:54:50 51°16.219 2°54.282 88.5 0.1 108.7 15.7
2003-01-21 08:54:54 51°16.219 2°54.282 88.3 0.1 59.7 15.9
2003-01-21 08:55:00 51°16.219 2°54.282 88.2   64.8 16.2
2003-01-21 08:55:06 51°16.22 2°54.282 88.2   35.4 16.5
2003-01-21 08:55:10 51°16.22 2°54.282 88   55 15.7
2003-01-21 08:55:16 51°16.22 2°54.282 88.2   42.3 16.3
2003-01-21 08:55:20 51°16.22 2°54.283 88   36.2 16.4
2003-01-21 08:55:26 51°16.22 2°54.283 88.2   51.3 9.8
2003-01-21 08:55:30 51°16.22 2°54.282 88.3   175.2 10.2
2003-01-21 08:55:36 51°16.22 2°54.283 88.3   230.5 9
2003-01-21 08:55:40 51°16.22 2°54.283 88.7   183.6 9.8
2003-01-21 08:55:46 51°16.22 2°54.283 88.7   193.6 10
2003-01-21 08:55:50 51°16.22 2°54.283 89   186.1 9
2003-01-21 08:55:56 51°16.22 2°54.283 89   229.6 10.2
2003-01-21 08:56:00 51°16.22 2°54.283 89   221.5 9.9
2003-01-21 08:56:04 51°16.22 2°54.283 88.7   270.7 -999
2003-01-21 08:56:10 51°16.22 2°54.283 88.7   271 9.8
2003-01-21 08:56:16 51°16.22 2°54.282 88.3 0.1 282.5 9.8
2003-01-21 08:56:20 51°16.22 2°54.282 88.3 0.1 269.3 9.9
2003-01-21 08:56:26 51°16.22 2°54.282 87.8   293.4 9.8
2003-01-21 08:56:30 51°16.22 2°54.282 87.5   287.3 9
2003-01-21 08:56:36 51°16.22 2°54.282 87.5   331.4 15.7
2003-01-21 08:56:40 51°16.22 2°54.282 87.7   249.5 16.5
2003-01-21 08:56:45 51°16.22 2°54.282 87.7   271.9 9.8
2003-01-21 08:56:50 51°16.22 2°54.282 87.8   290.1 9.7
2003-01-21 08:56:55 51°16.22 2°54.282 87.8   297.9 10.1
2003-01-21 08:57:00 51°16.22 2°54.282 87.7 0.1 333.1 9.6
2003-01-21 08:57:05 51°16.22 2°54.282 87.8 0.1 327.5 10.2
2003-01-21 08:57:10 51°16.22 2°54.282 87.8 0.1 318.1 -999
2003-01-21 08:57:16 51°16.22 2°54.282 88.2 0.1 312.4 9.9
2003-01-21 08:57:20 51°16.22 2°54.282 88.2   343.5 9.9
2003-01-21 08:57:26 51°16.22 2°54.282 88   22.3 9.8
2003-01-21 08:57:30 51°16.22 2°54.282 88.2   76.1 10.1
2003-01-21 08:57:36 51°16.22 2°54.282 88.2   22.8 10.2
2003-01-21 08:57:40 51°16.22 2°54.282 88   47.1 10.2
2003-01-21 08:57:44 51°16.22 2°54.282 88.2   330.8 10.2
2003-01-21 08:57:50 51°16.22 2°54.282 88.5   217.2 10.2
2003-01-21 08:57:56 51°16.22 2°54.282 88.8   233.9 10.2
2003-01-21 08:58:00 51°16.22 2°54.282 89   200.6 10.2
2003-01-21 08:58:04 51°16.22 2°54.282 89.3   332.3 10.2
2003-01-21 08:58:10 51°16.221 2°54.282 89.5   341.1 10.2
2003-01-21 08:58:16 51°16.221 2°54.282 89.5   313.8 10.2
2003-01-21 08:58:20 51°16.221 2°54.282 89.2   5.5 10.2
2003-01-21 08:58:26 51°16.221 2°54.283 89   39.7 10.2
2003-01-21 08:58:30 51°16.221 2°54.283 89.2   83.2 10.2
2003-01-21 08:58:36 51°16.221 2°54.283 89.3   79.1 10.2
2003-01-21 08:58:40 51°16.221 2°54.283 89.5   65.5 10.2
2003-01-21 08:58:46 51°16.221 2°54.283 89.5   67.6 10.2
2003-01-21 08:58:50 51°16.221 2°54.283 89.5   71.8 10.2
2003-01-21 08:58:55 51°16.221 2°54.283 89.5   29.3 10.2
2003-01-21 08:59:00 51°16.221 2°54.283 89.5   322.4 10.2
2003-01-21 08:59:06 51°16.221 2°54.283 89.7   323.3 10.2
2003-01-21 08:59:10 51°16.221 2°54.283 89.7   319.8 10.2
2003-01-21 08:59:16 51°16.221 2°54.283 89.7   297.1 10.2
2003-01-21 08:59:20 51°16.221 2°54.283 89.7   263.8 10.2
2003-01-21 08:59:26 51°16.221 2°54.283 89.8   214.7 10.2
2003-01-21 08:59:30 51°16.221 2°54.283 90.2 0.1 214.3 10.2
2003-01-21 08:59:36 51°16.221 2°54.282 90.3   212.6 10.3
2003-01-21 08:59:40 51°16.221 2°54.282 90.3   171.5 10.2
2003-01-21 08:59:45 51°16.221 2°54.282 90.2   136.6 10.2
2003-01-21 08:59:50 51°16.22 2°54.282 90.5   160.4 10.2
2003-01-21 08:59:54 51°16.221 2°54.282 90   66.7 10.2
2003-01-21 09:00:00 51°16.22 2°54.282 89.5   72.9 10.2
2003-01-21 09:00:06 51°16.22 2°54.282 89.2   62.6 10.2
2003-01-21 09:00:10 51°16.22 2°54.282 89   39.3 10.2
2003-01-21 09:00:16 51°16.22 2°54.282 88.7   46.8 -999
2003-01-21 09:00:21 51°16.22 2°54.282 88.5   67.8 -999
2003-01-21 09:00:26 51°16.22 2°54.282 88.3   47.6 10.3
2003-01-21 09:00:30 51°16.22 2°54.282 88.3 0.1 39 10.3
2003-01-21 09:00:36 51°16.22 2°54.282 88.3   37.4 10.3
2003-01-21 09:00:40 51°16.22 2°54.283 88.3 0.1 40.9 10.2
2003-01-21 09:00:44 51°16.22 2°54.283 88.8 0.1 63.9 10.3
2003-01-21 09:00:50 51°16.22 2°54.283 89.3   106.4 10.3
2003-01-21 09:00:56 51°16.22 2°54.283 89.5   70.7 10.3
2003-01-21 09:01:00 51°16.221 2°54.283 89.8   128.8 10.2
2003-01-21 09:01:04 51°16.221 2°54.283 90.2   326.1 10.2
2003-01-21 09:01:10 51°16.221 2°54.283 90.3   33.5 10.3
2003-01-21 09:01:16 51°16.221 2°54.283 90.2 0.1 15.3 10.3
2003-01-21 09:01:20 51°16.221 2°54.283 90.2   6.1 10.3
2003-01-21 09:01:26 51°16.221 2°54.283 90   346.4 10.2
2003-01-21 09:01:30 51°16.221 2°54.283 89.8   316.7 10.3
2003-01-21 09:01:36 51°16.221 2°54.283 89.8 0.1 299 10.3
2003-01-21 09:01:40 51°16.221 2°54.282 89.8   308.9 10.3
2003-01-21 09:01:46 51°16.221 2°54.282 89.7 0.1 263.1 10.3
2003-01-21 09:01:50 51°16.221 2°54.282 89.8 0.1 285.5 10.3
2003-01-21 09:01:54 51°16.221 2°54.282 90 0.1 262.8 10.3
2003-01-21 09:02:00 51°16.221 2°54.282 90 0.1 285.2 10.3
2003-01-21 09:02:06 51°16.221 2°54.282 90.2 0.1 276 10.3
2003-01-21 09:02:10 51°16.22 2°54.281 90.5 0.1 254.5 10.3
2003-01-21 09:02:15 51°16.22 2°54.281 90.8 0.1 253.7 10.3
2003-01-21 09:02:20 51°16.22 2°54.281 90.8 0.1 259.7 10.3
2003-01-21 09:02:26 51°16.22 2°54.281 90.7 0.1 282.3 10.3
2003-01-21 09:02:30 51°16.22 2°54.281 90.7 0.1 269.6 10.3
2003-01-21 09:02:35 51°16.22 2°54.281 90.7   298.1 10.3
2003-01-21 09:02:40 51°16.22 2°54.281 90.7   309.2 10.3
2003-01-21 09:02:46 51°16.22 2°54.281 90.7   182 10.3
2003-01-21 09:02:50 51°16.22 2°54.281 90.8   224 10.3
2003-01-21 09:02:54 51°16.22 2°54.281 90.7   121 10.3
2003-01-21 09:03:00 51°16.22 2°54.281 90.7   98.9 10.3
2003-01-21 09:03:06 51°16.22 2°54.281 90.8   148.2 10.3
2003-01-21 09:03:11 51°16.22 2°54.281 90.7   139.7 10.3
2003-01-21 09:03:14 51°16.22 2°54.281 90.3   143.2 10.3
2003-01-21 09:03:20 51°16.22 2°54.281 90.2   118.7 10.3
2003-01-21 09:03:25 51°16.219 2°54.281 90.2   142.7 10.3
2003-01-21 09:03:30 51°16.219 2°54.281 89.8   115.8 10.3
2003-01-21 09:03:34 51°16.219 2°54.281 89.7   134.8 10.2
2003-01-21 09:03:40 51°16.219 2°54.281 89.5   124.1 10.3
2003-01-21 09:03:46 51°16.219 2°54.281 89.5   99.8 10.3
2003-01-21 09:03:50 51°16.219 2°54.281 89.5 0.1 69.1 10.3
2003-01-21 09:03:56 51°16.219 2°54.281 89.3   38.7 10.3
2003-01-21 09:04:00 51°16.219 2°54.281 89.2   62.2 10.3
2003-01-21 09:04:04 51°16.219 2°54.281 89.2 0.1 76.4 10.3
2003-01-21 09:04:11 51°16.219 2°54.281 89.2 0.1 86.5 10.2
2003-01-21 09:04:16 51°16.219 2°54.281 89.7   91.3 10.2
2003-01-21 09:04:20 51°16.219 2°54.281 89.7 0.1 72.2 10.3
2003-01-21 09:04:24 51°16.219 2°54.281 89.7   90 10.3
2003-01-21 09:04:31 51°16.219 2°54.282 89.7 0.1 71.5 10.3
2003-01-21 09:04:36 51°16.219 2°54.281 89.5   64.2 10.3
2003-01-21 09:04:41 51°16.219 2°54.282 89.5   31.5 10.3
2003-01-21 09:04:45 51°16.218 2°54.282 89.7   55.6 10.3
2003-01-21 09:04:51 51°16.218 2°54.281 89.7   63.5 10.3
2003-01-21 09:04:56 51°16.218 2°54.281 89.7   62.6 10.3
2003-01-21 09:05:00 51°16.218 2°54.281 89.8   7.4 10.3
2003-01-21 09:05:04 51°16.218 2°54.281 90   315.6 10.3
2003-01-21 09:05:11 51°16.218 2°54.281 90.2   277.4 10.3
2003-01-21 09:05:15 51°16.218 2°54.281 90.2   309.3 10.3
2003-01-21 09:05:21 51°16.218 2°54.281 90   303.5 10.3
2003-01-21 09:05:25 51°16.218 2°54.281 90.2   298.4 10.3
2003-01-21 09:05:31 51°16.218 2°54.281 90.2   254.5 10.2
2003-01-21 09:05:36 51°16.218 2°54.281 90.2   245.9 10.3
2003-01-21 09:05:41 51°16.218 2°54.281 90   274.3 10.3
2003-01-21 09:05:45 51°16.218 2°54.281 89.8 0.1 267.4 10.3
2003-01-21 09:05:51 51°16.218 2°54.281 89.7 0.1 272.8 10.3
2003-01-21 09:05:56 51°16.218 2°54.281 89.7   245 10.3
2003-01-21 09:06:01 51°16.218 2°54.281 89.8   223.6 10.3
2003-01-21 09:06:05 51°16.218 2°54.281 89.8 0.1 235.6 10.3
2003-01-21 09:06:11 51°16.218 2°54.281 89.8   259.2 10.3
2003-01-21 09:06:16 51°16.218 2°54.281 89.8   229 10.3
2003-01-21 09:06:21 51°16.218 2°54.281 90   196.6 10.3
2003-01-21 09:06:25 51°16.218 2°54.281 90   183.7 10.3
2003-01-21 09:06:31 51°16.218 2°54.281 89.8   161.2 10.3
2003-01-21 09:06:35 51°16.218 2°54.281 90.2   152.2 10.3
2003-01-21 09:06:41 51°16.218 2°54.281 90.3   55.3 10.3
2003-01-21 09:06:45 51°16.218 2°54.281 90.7 0.1 107 10.3
2003-01-21 09:06:51 51°16.218 2°54.281 90.7 0.1 89 10.3
2003-01-21 09:06:55 51°16.218 2°54.281 90.8 0.1 102.4 10.3
2003-01-21 09:07:01 51°16.218 2°54.281 90.8 0.1 90.3 10.3
2003-01-21 09:07:06 51°16.218 2°54.282 90.7 0.1 111.8 10.3
2003-01-21 09:07:11 51°16.218 2°54.282 90.5 0.1 97.9 10.3
2003-01-21 09:07:15 51°16.218 2°54.282 90.5 0.1 104.6 10.3